createdAt,value
2017-09-13T00:00:06.991Z,0
2017-09-13T00:01:16.609Z,0
2017-09-13T00:02:26.524Z,0
2017-09-13T00:03:36.144Z,0
2017-09-13T00:04:46.411Z,0
2017-09-13T00:05:56.679Z,0
2017-09-13T00:07:06.947Z,0
2017-09-13T00:08:17.456Z,0
2017-09-13T00:09:27.713Z,0
2017-09-13T00:10:37.651Z,0
2017-09-13T00:11:47.918Z,0
2017-09-13T00:12:58.182Z,0
2017-09-13T00:14:10.442Z,0
2017-09-13T00:15:20.382Z,0
2017-09-13T00:16:30.656Z,0
2017-09-13T00:17:40.606Z,0
2017-09-13T00:18:50.550Z,0
2017-09-13T00:20:00.847Z,0
2017-09-13T00:21:11.113Z,0
2017-09-13T00:22:21.372Z,0
2017-09-13T00:23:31.639Z,0
2017-09-13T00:24:41.905Z,0
2017-09-13T00:25:52.167Z,0
2017-09-13T00:27:02.432Z,0
2017-09-13T00:28:12.689Z,0
2017-09-13T00:29:21.989Z,0
2017-09-13T00:30:32.256Z,0
2017-09-13T00:31:42.206Z,0
2017-09-13T00:32:52.474Z,0
2017-09-13T00:34:02.440Z,0
2017-09-13T00:35:12.057Z,0
2017-09-13T00:36:21.678Z,0
2017-09-13T00:37:31.937Z,0
2017-09-13T00:38:42.200Z,0
2017-09-13T00:39:52.463Z,0
2017-09-13T00:41:02.719Z,0
2017-09-13T00:42:12.660Z,0
2017-09-13T00:43:21.956Z,0
2017-09-13T00:44:31.896Z,0
2017-09-13T00:45:42.180Z,0
2017-09-13T00:46:52.442Z,0
2017-09-13T00:48:02.707Z,0
2017-09-13T00:49:12.972Z,0
2017-09-13T00:50:22.593Z,0
2017-09-13T00:51:32.853Z,0
2017-09-13T00:52:42.813Z,0
2017-09-13T00:53:53.075Z,0
2017-09-13T00:55:03.336Z,0
2017-09-13T00:56:12.958Z,0
2017-09-13T00:57:23.227Z,0
2017-09-13T00:58:32.842Z,0
2017-09-13T00:59:43.103Z,0
2017-09-13T01:00:53.359Z,0
2017-09-13T01:02:03.621Z,0
2017-09-13T01:03:13.886Z,0
2017-09-13T01:04:24.146Z,0
2017-09-13T01:05:34.081Z,0
2017-09-13T01:06:44.368Z,0
2017-09-13T01:07:54.627Z,0
2017-09-13T01:09:04.895Z,0
2017-09-13T01:10:15.158Z,0
2017-09-13T01:11:25.104Z,0
2017-09-13T01:12:35.047Z,0
2017-09-13T01:13:45.315Z,0
2017-09-13T01:14:55.578Z,0
2017-09-13T01:16:05.518Z,0
2017-09-13T01:17:15.780Z,0
2017-09-13T01:18:25.723Z,0
2017-09-13T01:19:36.017Z,0
2017-09-13T01:20:45.957Z,0
2017-09-13T01:21:56.218Z,0
2017-09-13T01:23:06.154Z,0
2017-09-13T01:24:16.087Z,0
2017-09-13T01:25:26.344Z,0
2017-09-13T01:26:36.283Z,0
2017-09-13T01:27:46.545Z,0
2017-09-13T01:28:56.495Z,0
2017-09-13T01:30:06.764Z,0
2017-09-13T01:31:17.027Z,0
2017-09-13T01:32:27.286Z,0
2017-09-13T01:33:36.905Z,0
2017-09-13T01:34:46.885Z,0
2017-09-13T01:35:57.151Z,0
2017-09-13T01:37:07.417Z,0
2017-09-13T01:38:17.354Z,0
2017-09-13T01:39:27.618Z,0
2017-09-13T01:40:37.888Z,0
2017-09-13T01:41:48.171Z,0
2017-09-13T01:42:58.438Z,0
2017-09-13T01:44:08.700Z,0
2017-09-13T01:45:18.642Z,0
2017-09-13T01:46:28.904Z,0
2017-09-13T01:47:39.160Z,0
2017-09-13T01:48:49.104Z,0
2017-09-13T01:49:59.368Z,0
2017-09-13T01:51:09.638Z,0
2017-09-13T01:52:19.580Z,0
2017-09-13T01:53:29.198Z,0
2017-09-13T01:54:39.465Z,0
2017-09-13T01:55:49.411Z,0
2017-09-13T01:56:59.350Z,0
2017-09-13T01:58:09.613Z,0
2017-09-13T01:59:19.873Z,0
2017-09-13T02:00:30.141Z,0
2017-09-13T02:01:40.410Z,0
2017-09-13T02:02:50.673Z,0
2017-09-13T02:04:00.612Z,0
2017-09-13T02:05:10.871Z,0
2017-09-13T02:06:20.486Z,0
2017-09-13T02:07:30.743Z,0
2017-09-13T02:08:40.687Z,0
2017-09-13T02:09:50.624Z,0
2017-09-13T02:11:00.983Z,0
2017-09-13T02:12:10.926Z,0
2017-09-13T02:13:20.871Z,0
2017-09-13T02:14:30.809Z,0
2017-09-13T02:15:40.754Z,0
2017-09-13T02:16:50.698Z,0
2017-09-13T02:18:00.957Z,0
2017-09-13T02:19:11.256Z,0
2017-09-13T02:20:21.199Z,0
2017-09-13T02:21:31.147Z,0
2017-09-13T02:22:41.090Z,0
2017-09-13T02:23:51.377Z,0
2017-09-13T02:25:01.316Z,0
2017-09-13T02:26:11.576Z,0
2017-09-13T02:27:21.832Z,0
2017-09-13T02:28:31.133Z,0
2017-09-13T02:29:41.393Z,0
2017-09-13T02:30:51.653Z,0
2017-09-13T02:32:01.913Z,0
2017-09-13T02:33:12.200Z,0
2017-09-13T02:34:22.180Z,0
2017-09-13T02:35:32.134Z,0
2017-09-13T02:36:42.393Z,0
2017-09-13T02:37:52.334Z,0
2017-09-13T02:39:02.277Z,0
2017-09-13T02:40:12.568Z,0
2017-09-13T02:41:22.511Z,0
2017-09-13T02:42:32.453Z,0
2017-09-13T02:43:42.720Z,0
2017-09-13T02:44:52.979Z,0
2017-09-13T02:46:03.242Z,0
2017-09-13T02:47:13.191Z,0
2017-09-13T02:48:23.161Z,0
2017-09-13T02:49:33.120Z,0
2017-09-13T02:50:43.378Z,0
2017-09-13T02:51:53.319Z,0
2017-09-13T02:53:03.585Z,0
2017-09-13T02:54:13.851Z,0
2017-09-13T02:55:23.796Z,0
2017-09-13T02:56:34.053Z,0
2017-09-13T02:57:43.353Z,0
2017-09-13T02:58:53.622Z,0
2017-09-13T03:00:03.887Z,0
2017-09-13T03:01:13.827Z,0
2017-09-13T03:02:23.775Z,0
2017-09-13T03:03:34.034Z,0
2017-09-13T03:04:44.303Z,0
2017-09-13T03:05:54.244Z,0
2017-09-13T03:07:04.505Z,0
2017-09-13T03:08:14.769Z,0
2017-09-13T03:09:25.061Z,0
2017-09-13T03:10:35.320Z,0
2017-09-13T03:11:45.258Z,0
2017-09-13T03:12:54.883Z,0
2017-09-13T03:14:05.144Z,0
2017-09-13T03:15:15.084Z,0
2017-09-13T03:16:25.347Z,0
2017-09-13T03:17:35.296Z,0
2017-09-13T03:18:45.557Z,0
2017-09-13T03:19:55.493Z,0
2017-09-13T03:21:05.761Z,0
2017-09-13T03:22:16.034Z,0
2017-09-13T03:23:26.328Z,0
2017-09-13T03:24:36.265Z,0
2017-09-13T03:25:46.527Z,0
2017-09-13T03:26:56.793Z,0
2017-09-13T03:28:07.047Z,0
2017-09-13T03:29:17.311Z,0
2017-09-13T03:30:26.933Z,0
2017-09-13T03:31:36.882Z,0
2017-09-13T03:32:46.821Z,0
2017-09-13T03:33:56.445Z,0
2017-09-13T03:35:06.713Z,0
2017-09-13T03:36:16.972Z,0
2017-09-13T03:37:26.911Z,0
2017-09-13T03:38:37.183Z,0
2017-09-13T03:39:47.445Z,0
2017-09-13T03:40:57.711Z,0
2017-09-13T03:42:07.333Z,0
2017-09-13T03:43:16.951Z,0
2017-09-13T03:44:27.211Z,0
2017-09-13T03:45:37.474Z,0
2017-09-13T03:46:47.107Z,0
2017-09-13T03:47:57.366Z,0
2017-09-13T03:49:07.625Z,0
2017-09-13T03:50:17.243Z,0
2017-09-13T03:51:27.503Z,0
2017-09-13T03:52:37.446Z,0
2017-09-13T03:53:47.701Z,0
2017-09-13T03:54:57.957Z,0
2017-09-13T03:56:08.215Z,0
2017-09-13T03:57:18.483Z,0
2017-09-13T03:58:28.420Z,0
2017-09-13T03:59:38.684Z,0
2017-09-13T04:00:48.622Z,0
2017-09-13T04:01:58.921Z,0
2017-09-13T04:03:09.224Z,0
2017-09-13T04:04:18.843Z,0
2017-09-13T04:05:28.783Z,0
2017-09-13T04:06:39.042Z,0
2017-09-13T04:07:48.956Z,0
2017-09-13T04:08:59.219Z,0
2017-09-13T04:10:09.490Z,0
2017-09-13T04:11:19.754Z,0
2017-09-13T04:12:29.690Z,0
2017-09-13T04:13:41.407Z,0
2017-09-13T04:14:51.666Z,0
2017-09-13T04:16:01.605Z,0
2017-09-13T04:17:11.900Z,0
2017-09-13T04:18:21.521Z,0
2017-09-13T04:19:32.087Z,0
2017-09-13T04:20:42.344Z,0
2017-09-13T04:21:52.624Z,0
2017-09-13T04:23:02.558Z,0
2017-09-13T04:24:12.817Z,0
2017-09-13T04:25:23.008Z,0
2017-09-13T04:26:33.271Z,0
2017-09-13T04:27:43.209Z,0
2017-09-13T04:28:53.474Z,0
2017-09-13T04:30:03.739Z,5
2017-09-13T04:31:13.458Z,5
2017-09-13T04:32:23.409Z,5
2017-09-13T04:33:33.350Z,5
2017-09-13T04:34:43.621Z,5
2017-09-13T04:35:53.560Z,5
2017-09-13T04:37:05.600Z,5
2017-09-13T04:38:15.253Z,5
2017-09-13T04:39:25.202Z,10
2017-09-13T04:40:35.460Z,10
2017-09-13T04:41:45.078Z,10
2017-09-13T04:42:54.694Z,10
2017-09-13T04:44:04.954Z,10
2017-09-13T04:45:14.896Z,15
2017-09-13T04:46:24.832Z,15
2017-09-13T04:47:34.773Z,15
2017-09-13T04:48:44.709Z,15
2017-09-13T04:49:54.661Z,20
2017-09-13T04:51:04.597Z,20
2017-09-13T04:52:14.221Z,25
2017-09-13T04:53:24.161Z,25
2017-09-13T04:54:34.422Z,30
2017-09-13T04:55:44.365Z,30
2017-09-13T04:56:54.313Z,30
2017-09-13T04:58:04.586Z,30
2017-09-13T04:59:14.538Z,30
2017-09-13T05:00:24.825Z,35
2017-09-13T05:01:35.098Z,40
2017-09-13T05:02:45.361Z,35
2017-09-13T05:03:55.308Z,40
2017-09-13T05:05:05.249Z,40
2017-09-13T05:06:15.506Z,45
2017-09-13T05:07:25.448Z,45
2017-09-13T05:08:35.710Z,45
2017-09-13T05:09:45.968Z,50
2017-09-13T05:10:56.231Z,50
2017-09-13T05:12:06.173Z,50
2017-09-13T05:13:16.437Z,55
2017-09-13T05:14:26.378Z,55
2017-09-13T05:15:36.320Z,60
2017-09-13T05:16:46.590Z,60
2017-09-13T05:17:56.848Z,60
2017-09-13T05:19:06.791Z,65
2017-09-13T05:20:16.410Z,65
2017-09-13T05:21:26.668Z,65
2017-09-13T05:22:36.933Z,70
2017-09-13T05:23:46.885Z,70
2017-09-13T05:24:56.823Z,70
2017-09-13T05:26:06.760Z,75
2017-09-13T05:27:17.017Z,75
2017-09-13T05:28:26.311Z,75
2017-09-13T05:29:36.276Z,80
2017-09-13T05:30:46.220Z,80
2017-09-13T05:31:56.487Z,80
2017-09-13T05:33:06.430Z,80
2017-09-13T05:34:16.057Z,80
2017-09-13T05:35:26.326Z,80
2017-09-13T05:36:36.593Z,85
2017-09-13T05:37:46.853Z,90
2017-09-13T05:38:57.116Z,85
2017-09-13T05:40:07.060Z,90
2017-09-13T05:41:16.680Z,90
2017-09-13T05:42:26.943Z,95
2017-09-13T05:43:36.883Z,90
2017-09-13T05:44:46.823Z,95
2017-09-13T05:45:56.773Z,95
2017-09-13T05:47:06.392Z,95
2017-09-13T05:48:16.655Z,95
2017-09-13T05:49:26.916Z,100
2017-09-13T05:50:37.186Z,100
2017-09-13T05:51:46.808Z,100
2017-09-13T05:52:56.755Z,100
2017-09-13T05:54:06.700Z,105
2017-09-13T05:55:16.958Z,105
2017-09-13T05:56:27.223Z,105
2017-09-13T05:57:37.171Z,105
2017-09-13T05:58:47.440Z,110
2017-09-13T05:59:57.703Z,110
2017-09-13T06:01:07.658Z,110
2017-09-13T06:02:18.326Z,115
2017-09-13T06:03:28.275Z,115
2017-09-13T06:04:38.536Z,115
2017-09-13T06:05:48.803Z,115
2017-09-13T06:06:58.744Z,115
2017-09-13T06:08:08.689Z,120
2017-09-13T06:09:18.956Z,120
2017-09-13T06:10:29.215Z,120
2017-09-13T06:11:39.154Z,125
2017-09-13T06:12:49.103Z,120
2017-09-13T06:13:59.364Z,120
2017-09-13T06:15:09.630Z,125
2017-09-13T06:16:19.569Z,125
2017-09-13T06:17:29.509Z,125
2017-09-13T06:18:39.773Z,125
2017-09-13T06:19:49.719Z,125
2017-09-13T06:20:59.985Z,125
2017-09-13T06:22:09.927Z,130
2017-09-13T06:23:19.896Z,130
2017-09-13T06:24:30.163Z,130
2017-09-13T06:25:40.116Z,130
2017-09-13T06:26:50.381Z,130
2017-09-13T06:28:00.000Z,130
2017-09-13T06:29:10.258Z,135
2017-09-13T06:30:20.207Z,135
2017-09-13T06:31:30.479Z,135
2017-09-13T06:32:40.739Z,135
2017-09-13T06:33:50.355Z,135
2017-09-13T06:34:59.976Z,140
2017-09-13T06:36:09.273Z,140
2017-09-13T06:37:19.535Z,140
2017-09-13T06:38:29.156Z,140
2017-09-13T06:39:39.100Z,140
2017-09-13T06:40:49.366Z,140
2017-09-13T06:41:58.992Z,140
2017-09-13T06:43:08.613Z,140
2017-09-13T06:44:18.235Z,145
2017-09-13T06:45:28.177Z,145
2017-09-13T06:46:38.441Z,150
2017-09-13T06:47:48.380Z,145
2017-09-13T06:48:58.428Z,145
2017-09-13T06:50:08.390Z,145
2017-09-13T06:51:18.648Z,145
2017-09-13T06:52:28.265Z,150
2017-09-13T06:53:38.532Z,150
2017-09-13T06:54:48.473Z,155
2017-09-13T06:55:58.739Z,165
2017-09-13T06:57:08.699Z,165
2017-09-13T06:58:18.962Z,165
2017-09-13T06:59:28.904Z,165
2017-09-13T07:00:38.858Z,170
2017-09-13T07:01:49.120Z,175
2017-09-13T07:02:59.388Z,185
2017-09-13T07:04:09.701Z,180
2017-09-13T07:05:19.659Z,180
2017-09-13T07:06:29.610Z,185
2017-09-13T07:07:39.877Z,185
2017-09-13T07:08:50.143Z,180
2017-09-13T07:10:00.093Z,175
2017-09-13T07:11:10.040Z,175
2017-09-13T07:12:20.316Z,170
2017-09-13T07:13:29.941Z,175
2017-09-13T07:14:40.210Z,180
2017-09-13T07:15:50.152Z,185
2017-09-13T07:17:00.096Z,190
2017-09-13T07:18:09.717Z,195
2017-09-13T07:19:19.336Z,210
2017-09-13T07:20:29.603Z,205
2017-09-13T07:21:39.237Z,220
2017-09-13T07:22:49.180Z,215
2017-09-13T07:23:58.814Z,210
2017-09-13T07:25:08.759Z,210
2017-09-13T07:26:18.711Z,210
2017-09-13T07:27:28.658Z,220
2017-09-13T07:28:38.611Z,225
2017-09-13T07:29:48.898Z,225
2017-09-13T07:30:58.846Z,230
2017-09-13T07:32:09.121Z,235
2017-09-13T07:33:19.068Z,230
2017-09-13T07:34:29.343Z,245
2017-09-13T07:35:39.656Z,255
2017-09-13T07:36:49.929Z,245
2017-09-13T07:37:59.550Z,255
2017-09-13T07:39:09.175Z,260
2017-09-13T07:40:18.801Z,255
2017-09-13T07:41:29.074Z,240
2017-09-13T07:42:39.345Z,220
2017-09-13T07:43:49.290Z,215
2017-09-13T07:44:59.562Z,205
2017-09-13T07:46:09.504Z,205
2017-09-13T07:47:19.775Z,225
2017-09-13T07:48:29.717Z,255
2017-09-13T07:49:39.664Z,270
2017-09-13T07:50:49.945Z,280
2017-09-13T07:52:00.216Z,290
2017-09-13T07:53:10.169Z,285
2017-09-13T07:54:20.113Z,285
2017-09-13T07:55:29.417Z,290
2017-09-13T07:56:39.682Z,295
2017-09-13T07:57:49.621Z,295
2017-09-13T07:58:59.896Z,295
2017-09-13T08:00:10.162Z,300
2017-09-13T08:01:20.110Z,300
2017-09-13T08:02:30.056Z,295
2017-09-13T08:03:40.345Z,290
2017-09-13T08:04:50.295Z,290
2017-09-13T08:05:59.919Z,295
2017-09-13T08:07:10.193Z,315
2017-09-13T08:08:20.139Z,325
2017-09-13T08:09:31.495Z,325
2017-09-13T08:10:41.776Z,325
2017-09-13T08:11:51.719Z,325
2017-09-13T08:13:01.985Z,320
2017-09-13T08:14:12.253Z,315
2017-09-13T08:15:22.522Z,315
2017-09-13T08:16:32.472Z,320
2017-09-13T08:17:42.748Z,320
2017-09-13T08:18:51.728Z,320
2017-09-13T08:20:01.702Z,320
2017-09-13T08:21:11.987Z,320
2017-09-13T08:22:21.929Z,315
2017-09-13T08:23:31.873Z,325
2017-09-13T08:24:42.141Z,335
2017-09-13T08:25:52.412Z,340
2017-09-13T08:27:02.727Z,350
2017-09-13T08:28:12.673Z,350
2017-09-13T08:29:22.293Z,345
2017-09-13T08:30:32.567Z,330
2017-09-13T08:31:42.189Z,310
2017-09-13T08:32:51.820Z,290
2017-09-13T08:34:02.092Z,290
2017-09-13T08:35:12.044Z,300
2017-09-13T08:36:22.311Z,320
2017-09-13T08:37:32.258Z,315
2017-09-13T08:38:42.272Z,315
2017-09-13T08:39:52.540Z,330
2017-09-13T08:41:02.811Z,325
2017-09-13T08:42:12.441Z,310
2017-09-13T08:43:22.390Z,305
2017-09-13T08:44:32.351Z,305
2017-09-13T08:45:42.296Z,310
2017-09-13T08:46:51.924Z,320
2017-09-13T08:48:02.198Z,335
2017-09-13T08:49:12.467Z,355
2017-09-13T08:50:22.411Z,365
2017-09-13T08:51:32.031Z,365
2017-09-13T08:52:42.301Z,365
2017-09-13T08:53:52.246Z,365
2017-09-13T08:55:01.876Z,350
2017-09-13T08:56:12.143Z,365
2017-09-13T08:57:21.774Z,375
2017-09-13T08:58:31.400Z,385
2017-09-13T08:59:41.357Z,380
2017-09-13T09:00:51.629Z,385
2017-09-13T09:02:01.902Z,385
2017-09-13T09:03:12.170Z,390
2017-09-13T09:04:22.443Z,380
2017-09-13T09:05:32.391Z,365
2017-09-13T09:06:42.340Z,360
2017-09-13T09:07:52.606Z,360
2017-09-13T09:09:02.878Z,360
2017-09-13T09:10:12.519Z,370
2017-09-13T09:11:22.473Z,370
2017-09-13T09:12:32.420Z,345
2017-09-13T09:13:42.369Z,330
2017-09-13T09:14:52.319Z,325
2017-09-13T09:16:02.496Z,325
2017-09-13T09:17:12.126Z,330
2017-09-13T09:18:22.071Z,330
2017-09-13T09:19:31.374Z,330
2017-09-13T09:20:41.320Z,325
2017-09-13T09:21:51.590Z,310
2017-09-13T09:23:01.214Z,295
2017-09-13T09:24:11.167Z,275
2017-09-13T09:25:21.135Z,260
2017-09-13T09:26:31.408Z,245
2017-09-13T09:27:41.036Z,230
2017-09-13T09:28:51.308Z,215
2017-09-13T09:30:01.577Z,205
2017-09-13T09:31:11.846Z,195
2017-09-13T09:32:21.148Z,195
2017-09-13T09:33:31.094Z,185
2017-09-13T09:34:41.367Z,190
2017-09-13T09:35:51.640Z,195
2017-09-13T09:37:01.910Z,210
2017-09-13T09:38:11.541Z,225
2017-09-13T09:39:20.847Z,245
2017-09-13T09:40:30.802Z,275
2017-09-13T09:41:41.079Z,320
2017-09-13T09:42:51.358Z,365
2017-09-13T09:44:01.628Z,410
2017-09-13T09:45:11.895Z,430
2017-09-13T09:46:21.526Z,430
2017-09-13T09:47:30.839Z,420
2017-09-13T09:48:41.105Z,410
2017-09-13T09:49:51.049Z,395
2017-09-13T09:51:00.999Z,380
2017-09-13T09:52:10.947Z,370
2017-09-13T09:53:21.228Z,380
2017-09-13T09:54:30.855Z,360
2017-09-13T09:55:40.801Z,345
2017-09-13T09:56:51.069Z,315
2017-09-13T09:58:00.379Z,305
2017-09-13T09:59:10.654Z,335
2017-09-13T10:00:20.601Z,300
2017-09-13T10:01:30.557Z,280
2017-09-13T10:02:39.873Z,305
2017-09-13T10:03:49.821Z,330
2017-09-13T10:04:59.773Z,330
2017-09-13T10:06:10.045Z,320
2017-09-13T10:07:19.671Z,305
2017-09-13T10:08:29.297Z,300
2017-09-13T10:09:39.598Z,310
2017-09-13T10:10:49.559Z,315
2017-09-13T10:11:59.515Z,330
2017-09-13T10:13:09.803Z,345
2017-09-13T10:14:19.762Z,355
2017-09-13T10:15:29.743Z,365
2017-09-13T10:16:39.692Z,365
2017-09-13T10:17:49.667Z,355
2017-09-13T10:18:59.619Z,340
2017-09-13T10:20:09.905Z,325
2017-09-13T10:21:19.856Z,305
2017-09-13T10:22:29.813Z,295
2017-09-13T10:23:40.082Z,285
2017-09-13T10:24:50.352Z,270
2017-09-13T10:26:00.300Z,245
2017-09-13T10:27:10.579Z,235
2017-09-13T10:28:20.854Z,245
2017-09-13T10:29:31.122Z,255
2017-09-13T10:30:41.395Z,275
2017-09-13T10:31:51.662Z,280
2017-09-13T10:33:01.933Z,275
2017-09-13T10:34:11.560Z,270
2017-09-13T10:35:21.506Z,265
2017-09-13T10:36:31.458Z,255
2017-09-13T10:37:41.431Z,245
2017-09-13T10:38:51.697Z,235
2017-09-13T10:40:01.642Z,235
2017-09-13T10:41:11.591Z,230
2017-09-13T10:42:21.545Z,235
2017-09-13T10:43:31.491Z,245
2017-09-13T10:44:41.437Z,255
2017-09-13T10:45:51.384Z,265
2017-09-13T10:47:01.018Z,275
2017-09-13T10:48:11.285Z,300
2017-09-13T10:49:21.231Z,325
2017-09-13T10:50:31.182Z,365
2017-09-13T10:51:41.448Z,390
2017-09-13T10:52:51.724Z,430
2017-09-13T10:54:01.679Z,485
2017-09-13T10:55:11.949Z,555
2017-09-13T10:56:21.897Z,580
2017-09-13T10:57:30.881Z,595
2017-09-13T10:58:41.149Z,615
2017-09-13T10:59:51.416Z,625
2017-09-13T11:01:01.691Z,625
2017-09-13T11:02:11.639Z,600
2017-09-13T11:03:21.615Z,575
2017-09-13T11:04:31.251Z,555
2017-09-13T11:05:41.517Z,540
2017-09-13T11:06:51.465Z,540
2017-09-13T11:08:01.736Z,535
2017-09-13T11:09:11.693Z,520
2017-09-13T11:10:21.323Z,500
2017-09-13T11:11:31.275Z,505
2017-09-13T11:12:41.544Z,530
2017-09-13T11:13:51.489Z,515
2017-09-13T11:15:01.445Z,500
2017-09-13T11:16:11.392Z,495
2017-09-13T11:17:21.340Z,495
2017-09-13T11:18:31.294Z,465
2017-09-13T11:19:41.562Z,460
2017-09-13T11:20:51.836Z,455
2017-09-13T11:22:02.110Z,455
2017-09-13T11:23:12.388Z,435
2017-09-13T11:24:22.662Z,410
2017-09-13T11:25:32.937Z,380
2017-09-13T11:26:43.206Z,370
2017-09-13T11:27:53.474Z,355
2017-09-13T11:29:03.428Z,350
2017-09-13T11:30:13.056Z,355
2017-09-13T11:31:22.683Z,375
2017-09-13T11:32:32.635Z,415
2017-09-13T11:33:42.586Z,455
2017-09-13T11:34:52.851Z,500
2017-09-13T11:36:02.479Z,755
2017-09-13T11:37:12.756Z,525
2017-09-13T11:38:22.715Z,480
2017-09-13T11:39:32.987Z,480
2017-09-13T11:40:42.935Z,535
2017-09-13T11:41:53.222Z,520
2017-09-13T11:43:03.490Z,450
2017-09-13T11:44:13.438Z,765
2017-09-13T11:45:23.389Z,755
2017-09-13T11:46:33.659Z,720
2017-09-13T11:47:43.942Z,550
2017-09-13T11:48:54.221Z,610
2017-09-13T11:50:04.527Z,560
2017-09-13T11:51:14.484Z,680
2017-09-13T11:52:24.114Z,770
2017-09-13T11:53:34.064Z,730
2017-09-13T11:54:44.336Z,695
2017-09-13T11:55:54.290Z,645
2017-09-13T11:57:04.251Z,735
2017-09-13T11:58:13.561Z,780
2017-09-13T11:59:22.875Z,735
2017-09-13T12:00:32.832Z,620
2017-09-13T12:01:42.792Z,510
2017-09-13T12:02:52.429Z,550
2017-09-13T12:04:02.066Z,695
2017-09-13T12:05:12.024Z,605
2017-09-13T12:06:21.654Z,695
2017-09-13T12:07:31.608Z,800
2017-09-13T12:08:41.904Z,665
2017-09-13T12:09:52.217Z,685
2017-09-13T12:11:02.174Z,560
2017-09-13T12:12:12.134Z,570
2017-09-13T12:13:22.083Z,680
2017-09-13T12:14:32.036Z,820
2017-09-13T12:15:42.324Z,810
2017-09-13T12:16:51.955Z,625
2017-09-13T12:18:01.588Z,570
2017-09-13T12:19:11.861Z,515
2017-09-13T12:20:21.173Z,535
2017-09-13T12:21:30.839Z,455
2017-09-13T12:22:41.113Z,510
2017-09-13T12:23:50.750Z,715
2017-09-13T12:25:01.018Z,635
2017-09-13T12:26:11.304Z,665
2017-09-13T12:27:21.253Z,660
2017-09-13T12:28:31.209Z,675
2017-09-13T12:29:41.182Z,690
2017-09-13T12:30:51.150Z,725
2017-09-13T12:32:01.426Z,655
2017-09-13T12:33:11.079Z,655
2017-09-13T12:34:20.711Z,645
2017-09-13T12:35:30.981Z,635
2017-09-13T12:36:41.253Z,665
2017-09-13T12:37:51.530Z,725
2017-09-13T12:39:01.509Z,760
2017-09-13T12:40:11.788Z,810
2017-09-13T12:41:21.743Z,840
2017-09-13T12:42:31.699Z,865
2017-09-13T12:43:41.649Z,905
2017-09-13T12:44:51.607Z,1025
2017-09-13T12:46:01.882Z,1135
2017-09-13T12:47:11.835Z,1160
2017-09-13T12:48:21.140Z,1305
2017-09-13T12:49:30.771Z,1420
2017-09-13T12:50:40.722Z,1510
2017-09-13T12:51:50.678Z,1605
2017-09-13T12:53:00.945Z,1775
2017-09-13T12:54:10.899Z,1905
2017-09-13T12:55:21.174Z,2070
2017-09-13T12:56:31.447Z,1935
2017-09-13T12:57:41.732Z,2375
2017-09-13T12:58:51.690Z,2090
2017-09-13T13:00:01.973Z,2415
2017-09-13T13:01:12.258Z,2210
2017-09-13T13:02:22.212Z,2195
2017-09-13T13:03:32.494Z,1960
2017-09-13T13:04:42.772Z,1470
2017-09-13T13:05:52.407Z,1300
2017-09-13T13:07:02.049Z,1120
2017-09-13T13:08:12.046Z,955
2017-09-13T13:09:21.682Z,945
2017-09-13T13:10:31.638Z,1100
2017-09-13T13:11:41.914Z,1110
2017-09-13T13:12:51.874Z,1225
2017-09-13T13:14:01.513Z,810
2017-09-13T13:15:11.789Z,1110
2017-09-13T13:16:22.070Z,1240
2017-09-13T13:17:32.026Z,1250
2017-09-13T13:18:42.306Z,1360
2017-09-13T13:19:52.265Z,870
2017-09-13T13:21:02.214Z,790
2017-09-13T13:22:12.201Z,690
2017-09-13T13:23:22.180Z,690
2017-09-13T13:24:32.137Z,685
2017-09-13T13:25:42.130Z,640
2017-09-13T13:26:51.765Z,660
2017-09-13T13:28:02.036Z,685
2017-09-13T13:29:11.672Z,705
2017-09-13T13:30:21.623Z,745
2017-09-13T13:31:31.596Z,715
2017-09-13T13:32:41.556Z,685
2017-09-13T13:33:51.514Z,700
2017-09-13T13:35:01.788Z,690
2017-09-13T13:36:12.070Z,685
2017-09-13T13:37:21.699Z,685
2017-09-13T13:38:31.977Z,695
2017-09-13T13:39:42.253Z,700
2017-09-13T13:40:52.204Z,700
2017-09-13T13:42:02.493Z,695
2017-09-13T13:43:12.789Z,690
2017-09-13T13:44:22.744Z,680
2017-09-13T13:45:32.374Z,665
2017-09-13T13:46:42.326Z,660
2017-09-13T13:47:52.281Z,650
2017-09-13T13:49:02.558Z,635
2017-09-13T13:50:12.834Z,615
2017-09-13T13:51:22.789Z,610
2017-09-13T13:52:32.098Z,605
2017-09-13T13:53:42.378Z,605
2017-09-13T13:54:52.328Z,595
2017-09-13T13:56:01.963Z,595
2017-09-13T13:57:12.244Z,585
2017-09-13T13:58:21.875Z,575
2017-09-13T13:59:31.828Z,565
2017-09-13T14:00:41.786Z,560
2017-09-13T14:01:52.057Z,550
2017-09-13T14:03:02.323Z,540
2017-09-13T14:04:12.278Z,535
2017-09-13T14:05:21.911Z,525
2017-09-13T14:06:32.204Z,515
2017-09-13T14:07:42.157Z,500
2017-09-13T14:08:52.108Z,485
2017-09-13T14:10:02.382Z,470
2017-09-13T14:11:12.655Z,455
2017-09-13T14:12:22.289Z,435
2017-09-13T14:13:32.568Z,420
2017-09-13T14:14:42.514Z,405
2017-09-13T14:15:52.462Z,380
2017-09-13T14:17:02.089Z,365
2017-09-13T14:18:12.053Z,350
2017-09-13T14:19:21.388Z,340
2017-09-13T14:20:31.663Z,330
2017-09-13T14:21:41.936Z,320
2017-09-13T14:22:52.208Z,310
2017-09-13T14:24:02.163Z,295
2017-09-13T14:25:12.440Z,285
2017-09-13T14:26:22.712Z,275
2017-09-13T14:27:32.986Z,265
2017-09-13T14:28:42.935Z,255
2017-09-13T14:29:52.895Z,255
2017-09-13T14:31:02.850Z,250
2017-09-13T14:32:12.800Z,250
2017-09-13T14:33:23.068Z,240
2017-09-13T14:34:32.695Z,240
2017-09-13T14:35:42.971Z,240
2017-09-13T14:36:52.591Z,240
2017-09-13T14:38:02.554Z,235
2017-09-13T14:39:12.829Z,235
2017-09-13T14:40:23.104Z,235
2017-09-13T14:41:32.739Z,235
2017-09-13T14:42:42.693Z,235
2017-09-13T14:43:52.317Z,235
2017-09-13T14:45:01.953Z,230
2017-09-13T14:46:12.220Z,230
2017-09-13T14:47:21.848Z,230
2017-09-13T14:48:31.801Z,225
2017-09-13T14:49:41.756Z,225
2017-09-13T14:50:51.381Z,225
2017-09-13T14:52:01.652Z,220
2017-09-13T14:53:11.929Z,220
2017-09-13T14:54:22.203Z,220
2017-09-13T14:55:32.153Z,220
2017-09-13T14:56:42.421Z,210
2017-09-13T14:57:52.366Z,210
2017-09-13T14:59:02.628Z,205
2017-09-13T15:00:12.901Z,205
2017-09-13T15:01:22.208Z,205
2017-09-13T15:02:32.157Z,210
2017-09-13T15:03:42.428Z,210
2017-09-13T15:04:52.379Z,210
2017-09-13T15:06:02.660Z,215
2017-09-13T15:07:12.933Z,220
2017-09-13T15:08:22.878Z,225
2017-09-13T15:09:32.512Z,230
2017-09-13T15:10:42.460Z,230
2017-09-13T15:11:52.410Z,235
2017-09-13T15:13:02.364Z,230
2017-09-13T15:14:11.990Z,235
2017-09-13T15:15:22.260Z,230
2017-09-13T15:16:32.217Z,235
2017-09-13T15:17:42.167Z,235
2017-09-13T15:18:52.112Z,240
2017-09-13T15:20:02.059Z,240
2017-09-13T15:21:12.007Z,245
2017-09-13T15:22:22.276Z,250
2017-09-13T15:23:32.234Z,255
2017-09-13T15:24:42.178Z,260
2017-09-13T15:25:52.140Z,260
2017-09-13T15:27:01.767Z,265
2017-09-13T15:28:11.714Z,265
2017-09-13T15:29:21.656Z,270
2017-09-13T15:30:31.600Z,270
2017-09-13T15:31:41.867Z,270
2017-09-13T15:32:51.496Z,270
2017-09-13T15:34:01.766Z,265
2017-09-13T15:35:11.396Z,265
2017-09-13T15:36:21.667Z,265
2017-09-13T15:37:31.938Z,265
2017-09-13T15:38:41.888Z,260
2017-09-13T15:39:51.524Z,260
2017-09-13T15:41:01.793Z,255
2017-09-13T15:42:12.074Z,250
2017-09-13T15:43:22.036Z,245
2017-09-13T15:44:31.669Z,240
2017-09-13T15:45:41.614Z,235
2017-09-13T15:46:51.238Z,230
2017-09-13T15:48:01.185Z,225
2017-09-13T15:49:11.132Z,220
2017-09-13T15:50:21.082Z,220
2017-09-13T15:51:31.351Z,215
2017-09-13T15:52:41.632Z,205
2017-09-13T15:53:51.577Z,200
2017-09-13T15:55:01.523Z,195
2017-09-13T15:56:11.507Z,190
2017-09-13T15:57:21.133Z,185
2017-09-13T15:58:30.759Z,180
2017-09-13T15:59:41.026Z,175
2017-09-13T16:00:51.297Z,170
2017-09-13T16:02:01.582Z,165
2017-09-13T16:03:11.856Z,165
2017-09-13T16:04:20.840Z,170
2017-09-13T16:05:30.142Z,160
2017-09-13T16:06:40.412Z,160
2017-09-13T16:07:50.682Z,155
2017-09-13T16:09:00.957Z,155
2017-09-13T16:10:11.227Z,150
2017-09-13T16:11:21.173Z,150
2017-09-13T16:12:31.466Z,150
2017-09-13T16:13:41.744Z,150
2017-09-13T16:14:51.370Z,145
2017-09-13T16:16:01.642Z,145
2017-09-13T16:17:11.590Z,145
2017-09-13T16:18:21.560Z,140
2017-09-13T16:19:31.186Z,140
2017-09-13T16:20:41.456Z,140
2017-09-13T16:21:51.406Z,140
2017-09-13T16:23:01.678Z,135
2017-09-13T16:24:11.953Z,130